Male, Maldives
Current Conditions -  °F | °C
As of 4:00 PM on Saturday 25 Oct 2014 (Local Time) from VRMM Reporting Station
Broken Clouds Broken Clouds  
Wind Chill: 86°   Ceiling: 12000
Heat Index: 95°   Visibility: 6mi
Dew Point: 75°   Wind: 6mph
Humidity: 70%   Direction: 280°W
Pressure: 29.8"   Gusts: NA
Location:  4.17°N, 73.5°E
Report Text: VRMM 251100Z 28005KT 9999 FEW018TCU BKN120 30/24 Q1009 NOSIG
Loading
Personal Weather Stations






























Interactive Weather Map
Tropical Storm Tracking
New forecast layout! Learn more

10-Day Weather Forecast

Advertisements
Track Severe Weather on mobile